Time;durP1;ratioP1;P1;durP2;ratioP2;P2;SDS_P1;SDS_P2;PMS_P1;PMS_P2;Temp;Humidity;BMP_temperature;BMP_pressure;BME280_temperature;BME280_humidity;BME280_pressure;Samples;Min_cycle;Max_cycle;Signal;HPM_P1;HPM_P2
2021/01/27 00:00:52;;;;;;;5.43;2.67;;;2.00;99.90;;;;;;6683144;88;20361;-73
2021/01/27 00:10:53;;;;;;;7.60;3.53;;;2.00;99.90;;;;;;6684854;88;20200;-74
2021/01/27 00:20:53;;;;;;;8.60;3.80;;;2.00;99.90;;;;;;6685156;88;20214;-73
2021/01/27 00:30:54;;;;;;;7.20;3.45;;;2.00;99.90;;;;;;6684351;88;21053;-71
2021/01/27 00:40:56;;;;;;;9.98;3.85;;;2.10;99.90;;;;;;6683501;88;20657;-73
2021/01/27 00:50:57;;;;;;;9.68;3.78;;;2.10;99.90;;;;;;6683989;88;20283;-73
2021/01/27 01:00:57;;;;;;;7.18;3.87;;;2.10;99.90;;;;;;6685207;88;20358;-74
2021/01/27 01:11:00;;;;;;;8.85;3.83;;;2.10;99.90;;;;;;6681805;88;20637;-73
2021/01/27 01:21:01;;;;;;;7.32;3.67;;;2.10;99.90;;;;;;6684458;88;20285;-74
2021/01/27 01:31:01;;;;;;;6.95;3.70;;;2.10;99.90;;;;;;6703398;78;20216;-72
2021/01/27 01:41:03;;;;;;;7.10;3.67;;;2.10;99.90;;;;;;6689984;88;20673;-71
2021/01/27 01:51:32;;;;;;;7.43;3.05;;;2.30;99.90;;;;;;6694881;88;20202;-73
2021/01/27 02:01:32;;;;;;;7.57;3.35;;;2.40;99.90;;;;;;6691532;88;20202;-72
2021/01/27 02:11:50;;;;;;;7.50;3.22;;;2.50;99.90;;;;;;6691857;88;20725;-71
2021/01/27 02:22:22;;;;;;;7.28;3.12;;;2.50;99.90;;;;;;6699039;88;20410;-72
2021/01/27 02:32:36;;;;;;;6.20;2.70;;;2.60;99.90;;;;;;6699120;88;20206;-71
2021/01/27 02:42:39;;;;;;;6.00;2.70;;;2.60;99.90;;;;;;6697482;88;20660;-71
2021/01/27 02:52:47;;;;;;;7.07;2.45;;;2.50;99.90;;;;;;6700558;88;20259;-72
2021/01/27 03:02:58;;;;;;;4.30;2.33;;;2.60;99.90;;;;;;6706680;88;20227;-71
2021/01/27 03:12:58;;;;;;;4.80;1.95;;;2.60;99.90;;;;;;6702027;88;20194;-72
2021/01/27 03:23:14;;;;;;;5.18;1.98;;;2.60;99.90;;;;;;6700954;88;20222;-71
2021/01/27 03:33:32;;;;;;;3.60;1.90;;;2.50;99.90;;;;;;6691971;88;20577;-72
2021/01/27 03:43:38;;;;;;;4.75;1.85;;;2.40;99.90;;;;;;6699495;88;20322;-72
2021/01/27 03:53:40;;;;;;;4.80;2.00;;;2.30;99.90;;;;;;6700766;88;20218;-73
2021/01/27 04:03:40;;;;;;;4.15;1.77;;;2.20;99.90;;;;;;6697731;88;20237;-72
2021/01/27 04:13:41;;;;;;;3.87;1.62;;;2.10;99.90;;;;;;6691833;88;20205;-71
2021/01/27 04:23:42;;;;;;;3.22;1.60;;;2.20;99.90;;;;;;6696400;88;20262;-72
2021/01/27 04:33:42;;;;;;;4.40;1.25;;;2.20;99.90;;;;;;6695436;88;20211;-71
2021/01/27 04:43:46;;;;;;;3.10;1.62;;;2.30;99.90;;;;;;6697128;88;20194;-71
2021/01/27 04:54:13;;;;;;;3.92;1.62;;;2.10;99.90;;;;;;6695025;88;20687;-72
2021/01/27 05:04:14;;;;;;;;;;;2.10;99.90;;;;;;6684018;88;20519;-71
2021/01/27 05:14:17;;;;;;;7.93;3.10;;;2.10;99.90;;;;;;6692155;88;20197;-72
2021/01/27 05:24:18;;;;;;;7.40;3.15;;;1.90;99.90;;;;;;6697766;88;20195;-72
2021/01/27 05:34:27;;;;;;;9.27;4.18;;;1.60;99.90;;;;;;6698369;88;20191;-74
2021/01/27 05:44:28;;;;;;;9.07;4.20;;;1.50;99.90;;;;;;6696105;88;20221;-74
2021/01/27 05:54:29;;;;;;;14.10;3.37;;;1.40;99.90;;;;;;6692160;88;20232;-71
2021/01/27 06:04:32;;;;;;;12.07;3.97;;;1.40;99.90;;;;;;6694043;88;20366;-72
2021/01/27 06:14:33;;;;;;;7.00;3.80;;;1.50;99.90;;;;;;6698614;88;20241;-71
2021/01/27 06:24:58;;;;;;;9.10;3.83;;;1.40;99.90;;;;;;6702057;88;20840;-71
2021/01/27 06:35:25;;;;;;;7.72;3.25;;;1.40;99.90;;;;;;6695078;88;20651;-72
2021/01/27 06:45:44;;;;;;;8.83;3.23;;;1.50;99.90;;;;;;6695496;88;20879;-71
2021/01/27 06:55:59;;;;;;;6.07;3.12;;;1.50;99.90;;;;;;6700249;88;20515;-71
2021/01/27 07:06:18;;;;;;;6.57;3.08;;;1.30;99.90;;;;;;6698936;88;20182;-72
2021/01/27 07:16:46;;;;;;;7.82;3.55;;;1.40;99.90;;;;;;6706898;88;20213;-73
2021/01/27 07:26:54;;;;;;;3.55;2.08;;;1.30;99.90;;;;;;6704012;88;20190;-72
2021/01/27 07:37:16;;;;;;;3.72;2.15;;;1.40;99.90;;;;;;6702643;77;20202;-72
2021/01/27 07:47:44;;;;;;;5.25;1.92;;;1.50;99.90;;;;;;6697245;88;20244;-73
2021/01/27 07:57:47;;;;;;;3.45;1.83;;;1.60;99.90;;;;;;6696128;88;20218;-73
2021/01/27 08:08:15;;;;;;;3.87;2.00;;;1.70;99.90;;;;;;6696344;88;20212;-73
2021/01/27 08:18:19;;;;;;;3.58;2.00;;;1.70;99.90;;;;;;6695624;88;20884;-72
2021/01/27 08:28:38;;;;;;;4.25;1.98;;;1.70;99.90;;;;;;6695968;88;20724;-75
2021/01/27 08:38:46;;;;;;;3.47;2.10;;;1.70;99.90;;;;;;6690886;88;20209;-74
2021/01/27 08:48:50;;;;;;;4.70;2.45;;;1.60;99.90;;;;;;6697661;88;20217;-74
2021/01/27 08:59:28;;;;;;;3.15;1.65;;;1.70;99.90;;;;;;6700947;88;20378;-74
2021/01/27 09:09:38;;;;;;;5.07;1.73;;;1.70;99.90;;;;;;6700938;88;20665;-74
2021/01/27 09:19:38;;;;;;;4.15;1.83;;;1.80;99.90;;;;;;6694802;88;20224;-75
2021/01/27 09:29:39;;;;;;;2.50;1.40;;;1.80;99.90;;;;;;6699842;88;20179;-74
2021/01/27 09:39:46;;;;;;;3.62;2.20;;;2.00;99.90;;;;;;6707402;88;20504;-74
2021/01/27 09:49:48;;;;;;;;;;;2.20;99.90;;;;;;6704481;88;20242;-75
2021/01/27 09:59:52;;;;;;;3.37;1.85;;;2.30;99.90;;;;;;6708461;88;20035;-75
2021/01/27 10:09:58;;;;;;;4.40;2.40;;;2.40;99.90;;;;;;6696477;88;20244;-74
2021/01/27 10:20:18;;;;;;;3.70;1.90;;;2.50;99.90;;;;;;6702271;88;20266;-73
2021/01/27 10:30:19;;;;;;;2.37;1.10;;;2.50;99.90;;;;;;6700335;88;20187;-74
2021/01/27 10:40:30;;;;;;;1.65;0.90;;;2.80;99.90;;;;;;6697823;88;20221;-73
2021/01/27 10:50:31;;;;;;;3.00;1.15;;;2.90;99.90;;;;;;6697781;88;20175;-74
2021/01/27 11:00:31;;;;;;;3.22;1.12;;;3.10;99.90;;;;;;6699111;88;22085;-74
2021/01/27 11:10:32;;;;;;;1.87;1.00;;;3.00;99.90;;;;;;6696573;88;20216;-74
2021/01/27 11:20:33;;;;;;;1.95;0.88;;;3.10;99.90;;;;;;6701353;88;20615;-74
2021/01/27 11:30:34;;;;;;;2.10;1.10;;;3.10;99.90;;;;;;6698536;88;21186;-73
2021/01/27 11:40:34;;;;;;;2.37;1.05;;;3.00;99.90;;;;;;6698083;88;20822;-75
2021/01/27 11:50:35;;;;;;;3.83;1.40;;;3.10;99.90;;;;;;6702289;88;20328;-74
2021/01/27 12:00:35;;;;;;;3.72;1.50;;;3.00;99.90;;;;;;6696402;88;20710;-74
2021/01/27 12:10:37;;;;;;;5.97;2.55;;;3.00;99.90;;;;;;6695006;88;20675;-75
2021/01/27 12:20:39;;;;;;;6.28;3.40;;;3.00;99.90;;;;;;6691601;88;20254;-75
2021/01/27 12:30:40;;;;;;;5.57;3.42;;;3.20;99.90;;;;;;6693036;88;20597;-74
2021/01/27 12:40:41;;;;;;;6.68;4.22;;;3.20;99.90;;;;;;6696582;88;20310;-74
2021/01/27 12:50:42;;;;;;;4.60;2.30;;;3.20;99.90;;;;;;6695403;88;20245;-74
2021/01/27 13:00:42;;;;;;;3.33;1.95;;;3.20;99.90;;;;;;6693220;88;20256;-75
2021/01/27 13:10:43;;;;;;;3.95;1.83;;;3.30;99.90;;;;;;6697074;88;20174;-74
2021/01/27 13:20:43;;;;;;;3.75;1.77;;;3.30;99.90;;;;;;6698182;88;20186;-74
2021/01/27 13:30:44;;;;;;;2.78;1.70;;;3.40;99.90;;;;;;6691255;88;20484;-74
2021/01/27 13:40:44;;;;;;;3.20;1.50;;;3.40;99.90;;;;;;6693370;88;20325;-75
2021/01/27 13:50:45;;;;;;;5.57;1.50;;;3.50;99.90;;;;;;6694661;88;20211;-75
2021/01/27 14:00:45;;;;;;;4.07;1.58;;;3.60;99.90;;;;;;6694503;88;20669;-76
2021/01/27 14:10:46;;;;;;;3.72;1.67;;;3.70;99.90;;;;;;6693132;88;20574;-75
2021/01/27 14:20:47;;;;;;;3.00;1.62;;;3.70;99.90;;;;;;6695046;88;20657;-75
2021/01/27 14:30:47;;;;;;;4.75;2.10;;;3.90;99.90;;;;;;6693010;88;20551;-75
2021/01/27 14:40:49;;;;;;;3.62;2.33;;;3.90;99.90;;;;;;6696269;88;20208;-75
2021/01/27 14:50:50;;;;;;;7.28;3.65;;;3.90;99.90;;;;;;6698735;88;20676;-75
2021/01/27 15:00:50;;;;;;;9.60;4.20;;;4.00;99.90;;;;;;6702086;88;20250;-75
2021/01/27 15:10:51;;;;;;;6.85;3.90;;;4.00;99.90;;;;;;6701118;88;20317;-75
2021/01/27 15:20:52;;;;;;;8.25;4.12;;;4.00;99.90;;;;;;6704727;88;20720;-75
2021/01/27 15:30:52;;;;;;;6.43;4.05;;;4.10;99.90;;;;;;6699659;88;20261;-75
2021/01/27 15:40:53;;;;;;;7.67;4.07;;;3.90;99.90;;;;;;6698412;88;20216;-75
2021/01/27 15:50:54;;;;;;;7.53;4.20;;;4.00;99.90;;;;;;6698715;88;21328;-75
2021/01/27 16:00:54;;;;;;;8.10;4.62;;;4.00;99.90;;;;;;6696173;88;20221;-76
2021/01/27 16:10:55;;;;;;;6.82;4.35;;;4.00;99.90;;;;;;6693352;88;20178;-75
2021/01/27 16:20:55;;;;;;;9.88;4.93;;;4.00;99.90;;;;;;6690253;88;20195;-75
2021/01/27 16:30:59;;;;;;;9.98;5.28;;;4.10;99.90;;;;;;6696006;88;20364;-76
2021/01/27 16:41:00;;;;;;;9.10;5.32;;;4.10;99.90;;;;;;6694265;88;20223;-75
2021/01/27 16:51:00;;;;;;;14.55;5.82;;;4.10;99.90;;;;;;6691915;88;20651;-75
2021/01/27 17:01:02;;;;;;;9.40;5.60;;;4.10;99.90;;;;;;6687586;88;20251;-76
2021/01/27 17:11:03;;;;;;;8.13;4.53;;;4.00;99.90;;;;;;6694921;88;20527;-75
2021/01/27 17:21:04;;;;;;;9.55;5.78;;;4.10;99.90;;;;;;6695491;88;20729;-75
2021/01/27 17:31:05;;;;;;;7.70;4.75;;;4.30;99.90;;;;;;6700595;88;20191;-74
2021/01/27 17:41:05;;;;;;;12.85;6.50;;;4.30;99.90;;;;;;6701794;88;20982;-75
2021/01/27 17:51:06;;;;;;;11.30;5.90;;;4.30;99.90;;;;;;6699851;88;20227;-76
2021/01/27 18:01:07;;;;;;;10.55;5.07;;;4.20;99.90;;;;;;6704268;88;21067;-75
2021/01/27 18:11:09;;;;;;;10.68;6.35;;;4.50;99.90;;;;;;6704422;88;20465;-77
2021/01/27 18:21:11;;;;;;;12.02;6.22;;;4.40;99.90;;;;;;6699945;88;20256;-75
2021/01/27 18:31:12;;;;;;;10.95;6.97;;;4.30;99.90;;;;;;6696389;88;20690;-76
2021/01/27 18:41:13;;;;;;;10.77;6.15;;;4.20;99.90;;;;;;6702667;88;20988;-75
2021/01/27 18:51:15;;;;;;;10.00;5.80;;;4.40;99.90;;;;;;6701749;88;20212;-76
2021/01/27 19:01:15;;;;;;;11.25;5.75;;;4.40;99.90;;;;;;6701740;88;20272;-75
2021/01/27 19:11:16;;;;;;;11.35;6.22;;;4.50;99.90;;;;;;6701827;88;20222;-76
2021/01/27 19:21:17;;;;;;;13.60;6.03;;;4.60;99.90;;;;;;6703521;88;20675;-76
2021/01/27 19:31:17;;;;;;;10.60;6.12;;;4.50;99.90;;;;;;6706644;88;20594;-77
2021/01/27 19:41:18;;;;;;;12.57;6.28;;;4.60;99.90;;;;;;6700378;88;20776;-77
2021/01/27 19:51:20;;;;;;;11.20;6.22;;;4.40;99.90;;;;;;6694776;88;20237;-76
2021/01/27 20:01:20;;;;;;;10.82;6.50;;;4.30;99.90;;;;;;6700771;88;20178;-75
2021/01/27 20:11:21;;;;;;;11.35;5.70;;;4.20;99.90;;;;;;6699369;88;20215;-75
2021/01/27 20:21:23;;;;;;;11.52;5.20;;;4.10;99.90;;;;;;6722239;77;20202;-75
2021/01/27 20:31:23;;;;;;;11.27;5.97;;;4.10;99.90;;;;;;6712565;88;20272;-76
2021/01/27 20:41:24;;;;;;;11.02;5.82;;;4.10;99.90;;;;;;6717543;88;20303;-75
2021/01/27 20:51:25;;;;;;;10.27;5.50;;;4.10;99.90;;;;;;6714607;88;20240;-75
2021/01/27 21:01:25;;;;;;;11.93;5.35;;;4.00;99.90;;;;;;6712002;88;20267;-75
2021/01/27 21:11:26;;;;;;;9.82;5.43;;;4.00;99.90;;;;;;6715494;88;20829;-74
2021/01/27 21:21:27;;;;;;;11.45;5.18;;;4.00;99.90;;;;;;6716913;88;20202;-73
2021/01/27 21:31:27;;;;;;;12.35;5.65;;;4.10;99.90;;;;;;6721298;88;20165;-74
2021/01/27 21:41:28;;;;;;;13.43;5.07;;;4.10;99.90;;;;;;6715839;88;20197;-73
2021/01/27 21:51:28;;;;;;;11.23;5.70;;;4.10;99.90;;;;;;6716326;88;20524;-72
2021/01/27 22:01:29;;;;;;;14.60;5.70;;;4.10;99.90;;;;;;6712512;88;20735;-74
2021/01/27 22:11:30;;;;;;;11.57;5.32;;;4.20;99.90;;;;;;6723371;88;20192;-73
2021/01/27 22:21:30;;;;;;;11.30;5.45;;;4.20;99.90;;;;;;6723913;88;20676;-72
2021/01/27 22:31:31;;;;;;;10.90;5.40;;;4.20;99.90;;;;;;6728100;88;20182;-73
2021/01/27 22:41:32;;;;;;;10.57;5.53;;;4.20;99.90;;;;;;6715284;88;20273;-73
2021/01/27 22:51:33;;;;;;;11.70;5.20;;;4.20;99.90;;;;;;6712150;88;20276;-73
2021/01/27 23:01:33;;;;;;;11.77;4.82;;;4.20;99.90;;;;;;6710186;88;20252;-73
2021/01/27 23:11:34;;;;;;;10.18;4.87;;;4.30;99.90;;;;;;6713745;88;20788;-73
2021/01/27 23:21:35;;;;;;;13.25;5.37;;;4.20;99.90;;;;;;6715034;88;20233;-73
2021/01/27 23:31:35;;;;;;;12.77;5.03;;;4.30;99.90;;;;;;6717995;88;20184;-75
2021/01/27 23:41:36;;;;;;;11.43;5.32;;;4.40;99.90;;;;;;6708890;88;20806;-74
2021/01/27 23:51:36;;;;;;;9.60;4.80;;;4.30;99.90;;;;;;6713050;88;20190;-74
